sensor_id;sensor_type;location;lat;lon;timestamp;P1;durP1;ratioP1;P2;durP2;ratioP2
22939;SDS011;11636;52.086;5.090;2022-09-03T00:00:57;2.40;;;1.20;;
22939;SDS011;11636;52.086;5.090;2022-09-03T00:03:58;2.38;;;1.30;;
22939;SDS011;11636;52.086;5.090;2022-09-03T00:07:15;3.83;;;1.20;;
22939;SDS011;11636;52.086;5.090;2022-09-03T00:10:21;2.80;;;1.23;;
22939;SDS011;11636;52.086;5.090;2022-09-03T00:13:23;2.30;;;1.17;;
22939;SDS011;11636;52.086;5.090;2022-09-03T00:16:28;2.20;;;1.20;;
22939;SDS011;11636;52.086;5.090;2022-09-03T00:19:30;2.55;;;1.23;;
22939;SDS011;11636;52.086;5.090;2022-09-03T00:22:39;2.20;;;1.42;;
22939;SDS011;11636;52.086;5.090;2022-09-03T00:25:35;2.70;;;1.35;;
22939;SDS011;11636;52.086;5.090;2022-09-03T00:28:51;2.83;;;1.47;;
22939;SDS011;11636;52.086;5.090;2022-09-03T00:32:17;2.78;;;1.48;;
22939;SDS011;11636;52.086;5.090;2022-09-03T00:35:16;2.65;;;1.40;;
22939;SDS011;11636;52.086;5.090;2022-09-03T00:38:13;4.25;;;1.40;;
22939;SDS011;11636;52.086;5.090;2022-09-03T00:50:48;2.20;;;1.20;;
22939;SDS011;11636;52.086;5.090;2022-09-03T01:00:21;3.45;;;1.30;;
22939;SDS011;11636;52.086;5.090;2022-09-03T01:03:10;3.67;;;1.48;;
22939;SDS011;11636;52.086;5.090;2022-09-03T01:06:18;2.72;;;1.30;;
22939;SDS011;11636;52.086;5.090;2022-09-03T01:16:19;2.72;;;1.50;;
22939;SDS011;11636;52.086;5.090;2022-09-03T01:28:53;2.33;;;1.20;;
22939;SDS011;11636;52.086;5.090;2022-09-03T01:41:26;2.63;;;1.42;;
22939;SDS011;11636;52.086;5.090;2022-09-03T01:48:11;2.22;;;1.13;;
22939;SDS011;11636;52.086;5.090;2022-09-03T01:54:19;2.33;;;1.00;;
22939;SDS011;11636;52.086;5.090;2022-09-03T02:00:34;2.45;;;1.27;;
22939;SDS011;11636;52.086;5.090;2022-09-03T02:03:37;2.30;;;1.20;;
22939;SDS011;11636;52.086;5.090;2022-09-03T02:06:26;3.03;;;1.25;;
22939;SDS011;11636;52.086;5.090;2022-09-03T02:09:23;3.65;;;1.30;;
22939;SDS011;11636;52.086;5.090;2022-09-03T02:12:18;2.20;;;1.17;;
22939;SDS011;11636;52.086;5.090;2022-09-03T02:15:10;2.47;;;1.30;;
22939;SDS011;11636;52.086;5.090;2022-09-03T02:18:08;2.72;;;1.40;;
22939;SDS011;11636;52.086;5.090;2022-09-03T02:21:00;2.78;;;1.50;;
22939;SDS011;11636;52.086;5.090;2022-09-03T02:23:54;2.63;;;1.20;;
22939;SDS011;11636;52.086;5.090;2022-09-03T02:26:41;2.33;;;1.10;;
22939;SDS011;11636;52.086;5.090;2022-09-03T02:29:35;2.75;;;1.38;;
22939;SDS011;11636;52.086;5.090;2022-09-03T02:32:29;2.78;;;1.35;;
22939;SDS011;11636;52.086;5.090;2022-09-03T02:35:23;2.80;;;1.35;;
22939;SDS011;11636;52.086;5.090;2022-09-03T02:38:11;2.85;;;1.35;;
22939;SDS011;11636;52.086;5.090;2022-09-03T02:41:08;2.47;;;1.02;;
22939;SDS011;11636;52.086;5.090;2022-09-03T02:44:03;2.25;;;1.25;;
22939;SDS011;11636;52.086;5.090;2022-09-03T02:47:05;2.67;;;1.30;;
22939;SDS011;11636;52.086;5.090;2022-09-03T02:50:00;2.45;;;1.20;;
22939;SDS011;11636;52.086;5.090;2022-09-03T02:52:54;2.58;;;1.20;;
22939;SDS011;11636;52.086;5.090;2022-09-03T02:55:41;2.67;;;1.30;;
22939;SDS011;11636;52.086;5.090;2022-09-03T02:58:37;2.40;;;1.38;;
22939;SDS011;11636;52.086;5.090;2022-09-03T03:01:25;2.40;;;1.17;;
22939;SDS011;11636;52.086;5.090;2022-09-03T03:04:18;2.65;;;1.30;;
22939;SDS011;11636;52.086;5.090;2022-09-03T03:07:13;2.65;;;1.20;;
22939;SDS011;11636;52.086;5.090;2022-09-03T03:10:07;2.40;;;1.27;;
22939;SDS011;11636;52.086;5.090;2022-09-03T03:13:01;2.38;;;1.27;;
22939;SDS011;11636;52.086;5.090;2022-09-03T03:15:56;2.83;;;1.33;;
22939;SDS011;11636;52.086;5.090;2022-09-03T03:18:44;3.15;;;1.50;;
22939;SDS011;11636;52.086;5.090;2022-09-03T03:21:38;3.15;;;1.20;;
22939;SDS011;11636;52.086;5.090;2022-09-03T03:24:25;2.83;;;1.40;;
22939;SDS011;11636;52.086;5.090;2022-09-03T03:27:19;2.88;;;1.70;;
22939;SDS011;11636;52.086;5.090;2022-09-03T03:30:07;2.90;;;1.30;;
22939;SDS011;11636;52.086;5.090;2022-09-03T03:33:02;2.33;;;1.30;;
22939;SDS011;11636;52.086;5.090;2022-09-03T03:35:50;2.53;;;1.30;;
22939;SDS011;11636;52.086;5.090;2022-09-03T03:38:44;2.67;;;1.30;;
22939;SDS011;11636;52.086;5.090;2022-09-03T03:41:32;3.22;;;1.27;;
22939;SDS011;11636;52.086;5.090;2022-09-03T03:44:27;3.15;;;1.45;;
22939;SDS011;11636;52.086;5.090;2022-09-03T03:47:21;2.53;;;1.30;;
22939;SDS011;11636;52.086;5.090;2022-09-03T03:50:08;3.40;;;1.40;;
22939;SDS011;11636;52.086;5.090;2022-09-03T03:53:02;3.22;;;1.40;;
22939;SDS011;11636;52.086;5.090;2022-09-03T03:55:57;2.78;;;1.38;;
22939;SDS011;11636;52.086;5.090;2022-09-03T03:58:52;2.47;;;1.30;;
22939;SDS011;11636;52.086;5.090;2022-09-03T04:01:40;2.97;;;1.30;;
22939;SDS011;11636;52.086;5.090;2022-09-03T04:04:33;2.38;;;1.20;;
22939;SDS011;11636;52.086;5.090;2022-09-03T04:07:27;2.42;;;1.35;;
22939;SDS011;11636;52.086;5.090;2022-09-03T04:10:21;3.03;;;1.38;;
22939;SDS011;11636;52.086;5.090;2022-09-03T04:13:15;2.60;;;1.40;;
22939;SDS011;11636;52.086;5.090;2022-09-03T04:16:07;3.00;;;1.40;;
22939;SDS011;11636;52.086;5.090;2022-09-03T04:19:02;2.97;;;1.60;;
22939;SDS011;11636;52.086;5.090;2022-09-03T04:21:50;3.40;;;1.40;;
22939;SDS011;11636;52.086;5.090;2022-09-03T04:24:43;2.22;;;1.15;;
22939;SDS011;11636;52.086;5.090;2022-09-03T04:27:30;3.05;;;1.30;;
22939;SDS011;11636;52.086;5.090;2022-09-03T04:30:24;2.70;;;1.40;;
22939;SDS011;11636;52.086;5.090;2022-09-03T04:33:13;2.25;;;1.25;;
22939;SDS011;11636;52.086;5.090;2022-09-03T04:36:07;2.75;;;1.50;;
22939;SDS011;11636;52.086;5.090;2022-09-03T04:38:58;2.70;;;1.38;;
22939;SDS011;11636;52.086;5.090;2022-09-03T04:41:53;3.28;;;1.20;;
22939;SDS011;11636;52.086;5.090;2022-09-03T04:44:47;3.20;;;1.40;;
22939;SDS011;11636;52.086;5.090;2022-09-03T04:47:34;3.38;;;1.40;;
22939;SDS011;11636;52.086;5.090;2022-09-03T04:50:31;3.13;;;1.52;;
22939;SDS011;11636;52.086;5.090;2022-09-03T04:53:18;2.35;;;1.13;;
22939;SDS011;11636;52.086;5.090;2022-09-03T04:56:13;2.53;;;1.40;;
22939;SDS011;11636;52.086;5.090;2022-09-03T04:59:07;2.55;;;1.15;;
22939;SDS011;11636;52.086;5.090;2022-09-03T05:02:01;2.72;;;1.20;;
22939;SDS011;11636;52.086;5.090;2022-09-03T05:04:49;3.25;;;1.20;;
22939;SDS011;11636;52.086;5.090;2022-09-03T05:07:42;2.88;;;1.40;;
22939;SDS011;11636;52.086;5.090;2022-09-03T05:10:36;3.33;;;1.30;;
22939;SDS011;11636;52.086;5.090;2022-09-03T05:13:30;2.53;;;1.25;;
22939;SDS011;11636;52.086;5.090;2022-09-03T05:16:26;3.00;;;1.30;;
22939;SDS011;11636;52.086;5.090;2022-09-03T05:19:15;2.28;;;1.30;;
22939;SDS011;11636;52.086;5.090;2022-09-03T05:22:09;2.80;;;1.30;;
22939;SDS011;11636;52.086;5.090;2022-09-03T05:24:56;2.45;;;1.30;;
22939;SDS011;11636;52.086;5.090;2022-09-03T05:27:50;2.40;;;1.05;;
22939;SDS011;11636;52.086;5.090;2022-09-03T05:30:39;3.35;;;1.50;;
22939;SDS011;11636;52.086;5.090;2022-09-03T05:33:38;2.88;;;1.15;;
22939;SDS011;11636;52.086;5.090;2022-09-03T05:36:32;3.53;;;1.40;;
22939;SDS011;11636;52.086;5.090;2022-09-03T05:39:27;2.40;;;1.10;;
22939;SDS011;11636;52.086;5.090;2022-09-03T05:42:21;2.30;;;1.20;;
22939;SDS011;11636;52.086;5.090;2022-09-03T05:45:09;2.88;;;1.50;;
22939;SDS011;11636;52.086;5.090;2022-09-03T05:48:02;2.83;;;1.25;;
22939;SDS011;11636;52.086;5.090;2022-09-03T05:50:57;2.83;;;1.27;;
22939;SDS011;11636;52.086;5.090;2022-09-03T05:56:41;2.20;;;1.10;;
22939;SDS011;11636;52.086;5.090;2022-09-03T05:59:34;3.20;;;1.30;;
22939;SDS011;11636;52.086;5.090;2022-09-03T06:02:22;2.50;;;1.15;;
22939;SDS011;11636;52.086;5.090;2022-09-03T06:05:15;2.70;;;1.17;;
22939;SDS011;11636;52.086;5.090;2022-09-03T06:08:10;2.47;;;1.00;;
22939;SDS011;11636;52.086;5.090;2022-09-03T06:11:01;2.22;;;1.13;;
22939;SDS011;11636;52.086;5.090;2022-09-03T06:13:58;2.75;;;1.45;;
22939;SDS011;11636;52.086;5.090;2022-09-03T06:16:53;2.58;;;1.30;;
22939;SDS011;11636;52.086;5.090;2022-09-03T06:19:48;2.80;;;1.33;;
22939;SDS011;11636;52.086;5.090;2022-09-03T06:22:36;2.42;;;1.13;;
22939;SDS011;11636;52.086;5.090;2022-09-03T06:25:29;2.30;;;1.17;;
22939;SDS011;11636;52.086;5.090;2022-09-03T06:28:23;2.92;;;1.70;;
22939;SDS011;11636;52.086;5.090;2022-09-03T06:31:18;2.92;;;1.20;;
22939;SDS011;11636;52.086;5.090;2022-09-03T06:34:13;3.65;;;1.27;;
22939;SDS011;11636;52.086;5.090;2022-09-03T06:37:06;2.88;;;1.25;;
22939;SDS011;11636;52.086;5.090;2022-09-03T06:40:01;2.63;;;1.20;;
22939;SDS011;11636;52.086;5.090;2022-09-03T06:42:56;3.22;;;1.10;;
22939;SDS011;11636;52.086;5.090;2022-09-03T06:45:55;2.65;;;1.23;;
22939;SDS011;11636;52.086;5.090;2022-09-03T06:48:50;2.42;;;1.10;;
22939;SDS011;11636;52.086;5.090;2022-09-03T06:51:43;2.38;;;1.17;;
22939;SDS011;11636;52.086;5.090;2022-09-03T06:54:37;2.63;;;1.27;;
22939;SDS011;11636;52.086;5.090;2022-09-03T06:57:26;2.25;;;1.10;;
22939;SDS011;11636;52.086;5.090;2022-09-03T07:00:20;2.75;;;1.33;;
22939;SDS011;11636;52.086;5.090;2022-09-03T07:03:09;2.17;;;1.10;;
22939;SDS011;11636;52.086;5.090;2022-09-03T07:06:10;2.95;;;1.40;;
22939;SDS011;11636;52.086;5.090;2022-09-03T07:09:01;2.78;;;1.23;;
22939;SDS011;11636;52.086;5.090;2022-09-03T07:11:56;2.30;;;1.27;;
22939;SDS011;11636;52.086;5.090;2022-09-03T07:14:49;2.40;;;1.15;;
22939;SDS011;11636;52.086;5.090;2022-09-03T07:17:43;2.20;;;0.98;;
22939;SDS011;11636;52.086;5.090;2022-09-03T07:20:37;2.50;;;0.88;;
22939;SDS011;11636;52.086;5.090;2022-09-03T07:23:25;2.28;;;1.10;;
22939;SDS011;11636;52.086;5.090;2022-09-03T07:26:20;1.75;;;0.90;;
22939;SDS011;11636;52.086;5.090;2022-09-03T07:29:09;2.67;;;0.90;;
22939;SDS011;11636;52.086;5.090;2022-09-03T07:32:04;3.45;;;1.05;;
22939;SDS011;11636;52.086;5.090;2022-09-03T07:34:51;2.05;;;0.90;;
22939;SDS011;11636;52.086;5.090;2022-09-03T07:37:44;2.13;;;0.90;;
22939;SDS011;11636;52.086;5.090;2022-09-03T07:40:32;2.25;;;0.90;;
22939;SDS011;11636;52.086;5.090;2022-09-03T07:43:29;2.30;;;0.90;;
22939;SDS011;11636;52.086;5.090;2022-09-03T07:46:21;1.60;;;0.75;;
22939;SDS011;11636;52.086;5.090;2022-09-03T07:49:17;1.67;;;0.80;;
22939;SDS011;11636;52.086;5.090;2022-09-03T07:52:05;2.63;;;0.90;;
22939;SDS011;11636;52.086;5.090;2022-09-03T07:55:03;2.05;;;0.80;;
22939;SDS011;11636;52.086;5.090;2022-09-03T07:57:57;1.73;;;0.82;;
22939;SDS011;11636;52.086;5.090;2022-09-03T08:00:53;2.45;;;0.80;;
22939;SDS011;11636;52.086;5.090;2022-09-03T08:03:50;2.35;;;0.80;;
22939;SDS011;11636;52.086;5.090;2022-09-03T08:06:45;2.10;;;0.95;;
22939;SDS011;11636;52.086;5.090;2022-09-03T08:09:40;1.70;;;0.75;;
22939;SDS011;11636;52.086;5.090;2022-09-03T08:12:34;2.53;;;1.00;;
22939;SDS011;11636;52.086;5.090;2022-09-03T08:15:21;2.40;;;0.70;;
22939;SDS011;11636;52.086;5.090;2022-09-03T08:18:15;2.50;;;0.90;;
22939;SDS011;11636;52.086;5.090;2022-09-03T08:21:09;1.48;;;0.70;;
22939;SDS011;11636;52.086;5.090;2022-09-03T08:24:13;1.58;;;0.75;;
22939;SDS011;11636;52.086;5.090;2022-09-03T08:27:02;1.55;;;0.70;;
22939;SDS011;11636;52.086;5.090;2022-09-03T08:29:56;1.58;;;0.60;;
22939;SDS011;11636;52.086;5.090;2022-09-03T08:32:50;1.73;;;0.70;;
22939;SDS011;11636;52.086;5.090;2022-09-03T08:35:51;1.88;;;0.70;;
22939;SDS011;11636;52.086;5.090;2022-09-03T08:38:46;1.40;;;0.60;;
22939;SDS011;11636;52.086;5.090;2022-09-03T08:41:46;1.15;;;0.40;;
22939;SDS011;11636;52.086;5.090;2022-09-03T08:45:00;1.70;;;0.77;;
22939;SDS011;11636;52.086;5.090;2022-09-03T08:47:58;2.17;;;0.90;;
22939;SDS011;11636;52.086;5.090;2022-09-03T08:51:00;1.92;;;0.80;;
22939;SDS011;11636;52.086;5.090;2022-09-03T08:53:51;0.93;;;0.50;;
22939;SDS011;11636;52.086;5.090;2022-09-03T08:56:49;1.80;;;0.80;;
22939;SDS011;11636;52.086;5.090;2022-09-03T08:59:36;1.60;;;0.70;;
22939;SDS011;11636;52.086;5.090;2022-09-03T09:06:14;1.42;;;0.70;;
22939;SDS011;11636;52.086;5.090;2022-09-03T09:12:18;1.80;;;0.90;;
22939;SDS011;11636;52.086;5.090;2022-09-03T09:19:02;2.40;;;0.80;;
22939;SDS011;11636;52.086;5.090;2022-09-03T09:25:39;1.80;;;0.70;;
22939;SDS011;11636;52.086;5.090;2022-09-03T09:28:34;1.80;;;0.77;;
22939;SDS011;11636;52.086;5.090;2022-09-03T09:31:30;1.63;;;0.80;;
22939;SDS011;11636;52.086;5.090;2022-09-03T09:34:18;2.78;;;0.80;;
22939;SDS011;11636;52.086;5.090;2022-09-03T09:37:13;1.35;;;0.60;;
22939;SDS011;11636;52.086;5.090;2022-09-03T09:40:01;1.73;;;0.70;;
22939;SDS011;11636;52.086;5.090;2022-09-03T09:43:08;1.52;;;0.70;;
22939;SDS011;11636;52.086;5.090;2022-09-03T09:46:04;2.17;;;0.98;;
22939;SDS011;11636;52.086;5.090;2022-09-03T09:49:01;1.60;;;0.60;;
22939;SDS011;11636;52.086;5.090;2022-09-03T09:52:08;1.80;;;0.70;;
22939;SDS011;11636;52.086;5.090;2022-09-03T09:58:05;1.70;;;0.57;;
22939;SDS011;11636;52.086;5.090;2022-09-03T10:04:07;1.48;;;0.60;;
22939;SDS011;11636;52.086;5.090;2022-09-03T10:07:26;2.78;;;0.80;;
22939;SDS011;11636;52.086;5.090;2022-09-03T10:10:17;1.90;;;0.80;;
22939;SDS011;11636;52.086;5.090;2022-09-03T10:13:13;1.60;;;0.80;;
22939;SDS011;11636;52.086;5.090;2022-09-03T10:16:27;1.77;;;0.73;;
22939;SDS011;11636;52.086;5.090;2022-09-03T10:19:27;1.58;;;0.70;;
22939;SDS011;11636;52.086;5.090;2022-09-03T10:22:22;1.55;;;0.63;;
22939;SDS011;11636;52.086;5.090;2022-09-03T10:25:20;1.27;;;0.50;;
22939;SDS011;11636;52.086;5.090;2022-09-03T10:28:19;2.30;;;0.70;;
22939;SDS011;11636;52.086;5.090;2022-09-03T10:37:46;2.20;;;0.90;;
22939;SDS011;11636;52.086;5.090;2022-09-03T10:50:42;2.15;;;0.70;;
22939;SDS011;11636;52.086;5.090;2022-09-03T10:54:01;1.75;;;0.85;;
22939;SDS011;11636;52.086;5.090;2022-09-03T11:06:28;2.53;;;0.70;;
22939;SDS011;11636;52.086;5.090;2022-09-03T11:09:26;1.55;;;0.85;;
22939;SDS011;11636;52.086;5.090;2022-09-03T11:12:28;1.35;;;0.77;;
22939;SDS011;11636;52.086;5.090;2022-09-03T11:15:32;1.30;;;0.60;;
22939;SDS011;11636;52.086;5.090;2022-09-03T11:18:31;1.63;;;0.70;;
22939;SDS011;11636;52.086;5.090;2022-09-03T11:21:25;1.95;;;0.82;;
22939;SDS011;11636;52.086;5.090;2022-09-03T11:24:22;2.25;;;1.00;;
22939;SDS011;11636;52.086;5.090;2022-09-03T11:30:22;1.25;;;0.63;;
22939;SDS011;11636;52.086;5.090;2022-09-03T11:33:25;1.80;;;0.85;;
22939;SDS011;11636;52.086;5.090;2022-09-03T11:36:26;1.38;;;0.73;;
22939;SDS011;11636;52.086;5.090;2022-09-03T11:39:37;2.58;;;0.75;;
22939;SDS011;11636;52.086;5.090;2022-09-03T11:48:36;1.42;;;0.70;;
22939;SDS011;11636;52.086;5.090;2022-09-03T11:51:35;1.60;;;0.65;;
22939;SDS011;11636;52.086;5.090;2022-09-03T11:54:24;5.18;;;0.93;;
22939;SDS011;11636;52.086;5.090;2022-09-03T11:57:29;1.65;;;0.80;;
22939;SDS011;11636;52.086;5.090;2022-09-03T12:00:17;2.00;;;0.77;;
22939;SDS011;11636;52.086;5.090;2022-09-03T12:03:14;1.40;;;0.70;;
22939;SDS011;11636;52.086;5.090;2022-09-03T12:12:42;1.77;;;0.70;;
22939;SDS011;11636;52.086;5.090;2022-09-03T12:18:46;2.08;;;0.80;;
22939;SDS011;11636;52.086;5.090;2022-09-03T12:21:38;1.83;;;0.80;;
22939;SDS011;11636;52.086;5.090;2022-09-03T12:24:33;2.47;;;0.82;;
22939;SDS011;11636;52.086;5.090;2022-09-03T12:27:31;2.30;;;1.00;;
22939;SDS011;11636;52.086;5.090;2022-09-03T12:30:23;1.35;;;0.60;;
22939;SDS011;11636;52.086;5.090;2022-09-03T12:33:18;1.75;;;0.70;;
22939;SDS011;11636;52.086;5.090;2022-09-03T12:36:07;4.22;;;1.10;;
22939;SDS011;11636;52.086;5.090;2022-09-03T12:39:18;2.90;;;0.90;;
22939;SDS011;11636;52.086;5.090;2022-09-03T12:42:30;1.92;;;0.68;;
22939;SDS011;11636;52.086;5.090;2022-09-03T12:45:25;1.50;;;0.63;;
22939;SDS011;11636;52.086;5.090;2022-09-03T12:48:45;1.27;;;0.52;;
22939;SDS011;11636;52.086;5.090;2022-09-03T12:52:31;1.92;;;0.80;;
22939;SDS011;11636;52.086;5.090;2022-09-03T12:58:26;1.95;;;0.65;;
22939;SDS011;11636;52.086;5.090;2022-09-03T13:01:28;1.48;;;0.77;;
22939;SDS011;11636;52.086;5.090;2022-09-03T13:04:29;1.67;;;0.70;;
22939;SDS011;11636;52.086;5.090;2022-09-03T13:07:32;1.23;;;0.60;;
22939;SDS011;11636;52.086;5.090;2022-09-03T13:10:31;1.40;;;0.60;;
22939;SDS011;11636;52.086;5.090;2022-09-03T13:13:24;1.33;;;0.70;;
22939;SDS011;11636;52.086;5.090;2022-09-03T13:23:07;2.13;;;1.10;;
22939;SDS011;11636;52.086;5.090;2022-09-03T13:35:33;2.17;;;1.10;;
22939;SDS011;11636;52.086;5.090;2022-09-03T13:48:20;2.20;;;0.77;;
22939;SDS011;11636;52.086;5.090;2022-09-03T13:51:59;2.08;;;1.02;;
22939;SDS011;11636;52.086;5.090;2022-09-03T13:54:58;1.90;;;0.90;;
22939;SDS011;11636;52.086;5.090;2022-09-03T13:58:08;1.77;;;0.93;;
22939;SDS011;11636;52.086;5.090;2022-09-03T14:01:22;1.98;;;0.80;;
22939;SDS011;11636;52.086;5.090;2022-09-03T14:04:46;1.52;;;0.80;;
22939;SDS011;11636;52.086;5.090;2022-09-03T14:20:46;2.28;;;1.40;;
22939;SDS011;11636;52.086;5.090;2022-09-03T14:27:02;2.58;;;1.10;;
22939;SDS011;11636;52.086;5.090;2022-09-03T14:29:59;1.95;;;1.00;;
22939;SDS011;11636;52.086;5.090;2022-09-03T14:35:59;1.70;;;0.90;;
22939;SDS011;11636;52.086;5.090;2022-09-03T15:05:35;1.40;;;0.70;;
22939;SDS011;11636;52.086;5.090;2022-09-03T15:11:47;1.73;;;0.90;;
22939;SDS011;11636;52.086;5.090;2022-09-03T15:14:54;1.40;;;0.60;;
22939;SDS011;11636;52.086;5.090;2022-09-03T15:20:57;1.88;;;0.80;;
22939;SDS011;11636;52.086;5.090;2022-09-03T15:30:15;2.70;;;1.10;;
22939;SDS011;11636;52.086;5.090;2022-09-03T15:33:22;1.65;;;0.95;;
22939;SDS011;11636;52.086;5.090;2022-09-03T15:36:26;1.80;;;0.90;;
22939;SDS011;11636;52.086;5.090;2022-09-03T15:39:33;1.77;;;0.80;;
22939;SDS011;11636;52.086;5.090;2022-09-03T15:42:28;2.30;;;0.93;;
22939;SDS011;11636;52.086;5.090;2022-09-03T15:45:59;2.45;;;1.10;;
22939;SDS011;11636;52.086;5.090;2022-09-03T15:51:45;1.90;;;0.60;;
22939;SDS011;11636;52.086;5.090;2022-09-03T15:55:05;1.70;;;0.80;;
22939;SDS011;11636;52.086;5.090;2022-09-03T15:58:02;1.70;;;0.80;;
22939;SDS011;11636;52.086;5.090;2022-09-03T16:01:22;1.55;;;0.77;;
22939;SDS011;11636;52.086;5.090;2022-09-03T16:20:03;1.10;;;0.52;;
22939;SDS011;11636;52.086;5.090;2022-09-03T16:26:13;1.00;;;0.60;;
22939;SDS011;11636;52.086;5.090;2022-09-03T16:29:11;1.25;;;0.60;;
22939;SDS011;11636;52.086;5.090;2022-09-03T16:38:39;1.50;;;0.77;;
22939;SDS011;11636;52.086;5.090;2022-09-03T16:41:51;1.65;;;0.77;;
22939;SDS011;11636;52.086;5.090;2022-09-03T16:45:02;1.65;;;0.80;;
22939;SDS011;11636;52.086;5.090;2022-09-03T16:51:08;2.05;;;0.98;;
22939;SDS011;11636;52.086;5.090;2022-09-03T16:58:06;1.80;;;0.70;;
22939;SDS011;11636;52.086;5.090;2022-09-03T17:10:35;1.77;;;0.85;;
22939;SDS011;11636;52.086;5.090;2022-09-03T17:14:11;1.38;;;0.63;;
22939;SDS011;11636;52.086;5.090;2022-09-03T17:17:46;1.67;;;0.68;;
22939;SDS011;11636;52.086;5.090;2022-09-03T17:36:21;1.15;;;0.60;;
22939;SDS011;11636;52.086;5.090;2022-09-03T17:39:20;1.75;;;0.60;;
22939;SDS011;11636;52.086;5.090;2022-09-03T17:42:31;1.73;;;0.73;;
22939;SDS011;11636;52.086;5.090;2022-09-03T17:45:39;1.30;;;0.68;;
22939;SDS011;11636;52.086;5.090;2022-09-03T17:51:44;2.10;;;0.85;;
22939;SDS011;11636;52.086;5.090;2022-09-03T17:57:39;1.55;;;0.77;;
22939;SDS011;11636;52.086;5.090;2022-09-03T18:00:35;1.67;;;0.95;;
22939;SDS011;11636;52.086;5.090;2022-09-03T18:03:44;1.92;;;0.98;;
22939;SDS011;11636;52.086;5.090;2022-09-03T18:07:00;2.60;;;1.17;;
22939;SDS011;11636;52.086;5.090;2022-09-03T18:10:15;2.10;;;1.15;;
22939;SDS011;11636;52.086;5.090;2022-09-03T18:13:45;2.35;;;1.40;;
22939;SDS011;11636;52.086;5.090;2022-09-03T18:17:03;3.67;;;2.38;;
22939;SDS011;11636;52.086;5.090;2022-09-03T18:20:07;3.17;;;2.20;;
22939;SDS011;11636;52.086;5.090;2022-09-03T18:23:31;3.92;;;2.60;;
22939;SDS011;11636;52.086;5.090;2022-09-03T18:26:58;4.05;;;2.60;;
22939;SDS011;11636;52.086;5.090;2022-09-03T18:30:13;3.35;;;2.33;;
22939;SDS011;11636;52.086;5.090;2022-09-03T18:33:21;3.47;;;2.30;;
22939;SDS011;11636;52.086;5.090;2022-09-03T18:36:34;4.22;;;2.80;;
22939;SDS011;11636;52.086;5.090;2022-09-03T18:39:47;5.82;;;3.20;;
22939;SDS011;11636;52.086;5.090;2022-09-03T18:43:04;3.63;;;2.30;;
22939;SDS011;11636;52.086;5.090;2022-09-03T18:46:30;4.90;;;3.00;;
22939;SDS011;11636;52.086;5.090;2022-09-03T18:57:08;4.80;;;2.90;;
22939;SDS011;11636;52.086;5.090;2022-09-03T19:00:24;3.90;;;2.65;;
22939;SDS011;11636;52.086;5.090;2022-09-03T19:03:51;4.93;;;3.35;;
22939;SDS011;11636;52.086;5.090;2022-09-03T19:07:46;4.57;;;2.95;;
22939;SDS011;11636;52.086;5.090;2022-09-03T19:14:48;5.75;;;3.42;;
22939;SDS011;11636;52.086;5.090;2022-09-03T19:21:28;5.65;;;3.42;;
22939;SDS011;11636;52.086;5.090;2022-09-03T19:24:52;5.07;;;3.45;;
22939;SDS011;11636;52.086;5.090;2022-09-03T19:31:36;4.63;;;3.28;;
22939;SDS011;11636;52.086;5.090;2022-09-03T19:41:31;5.38;;;3.25;;
22939;SDS011;11636;52.086;5.090;2022-09-03T19:44:57;5.32;;;3.28;;
22939;SDS011;11636;52.086;5.090;2022-09-03T19:48:20;5.43;;;3.30;;
22939;SDS011;11636;52.086;5.090;2022-09-03T19:51:50;4.95;;;3.30;;
22939;SDS011;11636;52.086;5.090;2022-09-03T19:55:23;4.78;;;3.20;;
22939;SDS011;11636;52.086;5.090;2022-09-03T19:58:31;4.90;;;3.10;;
22939;SDS011;11636;52.086;5.090;2022-09-03T20:01:46;4.85;;;3.17;;
22939;SDS011;11636;52.086;5.090;2022-09-03T20:05:00;6.00;;;3.15;;
22939;SDS011;11636;52.086;5.090;2022-09-03T20:08:14;4.78;;;3.15;;
22939;SDS011;11636;52.086;5.090;2022-09-03T20:11:21;4.63;;;3.08;;
22939;SDS011;11636;52.086;5.090;2022-09-03T20:14:19;4.30;;;3.22;;
22939;SDS011;11636;52.086;5.090;2022-09-03T20:17:12;5.15;;;3.40;;
22939;SDS011;11636;52.086;5.090;2022-09-03T20:20:14;4.60;;;3.28;;
22939;SDS011;11636;52.086;5.090;2022-09-03T20:23:18;4.40;;;2.83;;
22939;SDS011;11636;52.086;5.090;2022-09-03T20:32:49;6.18;;;4.20;;
22939;SDS011;11636;52.086;5.090;2022-09-03T20:41:54;4.35;;;3.15;;
22939;SDS011;11636;52.086;5.090;2022-09-03T20:45:13;4.32;;;3.15;;
22939;SDS011;11636;52.086;5.090;2022-09-03T20:52:05;3.70;;;2.67;;
22939;SDS011;11636;52.086;5.090;2022-09-03T20:55:03;4.68;;;2.60;;
22939;SDS011;11636;52.086;5.090;2022-09-03T21:01:32;3.47;;;2.42;;
22939;SDS011;11636;52.086;5.090;2022-09-03T21:11:01;3.55;;;2.63;;
22939;SDS011;11636;52.086;5.090;2022-09-03T21:13:56;3.50;;;2.47;;
22939;SDS011;11636;52.086;5.090;2022-09-03T21:23:12;3.47;;;2.53;;
22939;SDS011;11636;52.086;5.090;2022-09-03T21:26:22;3.35;;;2.40;;
22939;SDS011;11636;52.086;5.090;2022-09-03T21:32:32;3.30;;;2.10;;
22939;SDS011;11636;52.086;5.090;2022-09-03T21:43:15;3.70;;;2.22;;
22939;SDS011;11636;52.086;5.090;2022-09-03T21:46:14;4.55;;;2.30;;
22939;SDS011;11636;52.086;5.090;2022-09-03T21:49:34;3.13;;;2.35;;
22939;SDS011;11636;52.086;5.090;2022-09-03T21:52:48;3.17;;;2.17;;
22939;SDS011;11636;52.086;5.090;2022-09-03T21:59:02;4.30;;;2.83;;
22939;SDS011;11636;52.086;5.090;2022-09-03T22:04:52;3.65;;;2.30;;
22939;SDS011;11636;52.086;5.090;2022-09-03T22:10:49;3.53;;;2.40;;
22939;SDS011;11636;52.086;5.090;2022-09-03T22:13:50;3.45;;;2.40;;
22939;SDS011;11636;52.086;5.090;2022-09-03T22:16:57;4.03;;;2.60;;
22939;SDS011;11636;52.086;5.090;2022-09-03T22:19:56;3.72;;;2.33;;
22939;SDS011;11636;52.086;5.090;2022-09-03T22:22:54;3.83;;;2.88;;
22939;SDS011;11636;52.086;5.090;2022-09-03T22:29:11;3.58;;;2.60;;
22939;SDS011;11636;52.086;5.090;2022-09-03T22:38:12;3.40;;;2.80;;
22939;SDS011;11636;52.086;5.090;2022-09-03T22:44:47;4.38;;;3.00;;
22939;SDS011;11636;52.086;5.090;2022-09-03T22:48:07;4.00;;;3.20;;
22939;SDS011;11636;52.086;5.090;2022-09-03T22:51:13;4.60;;;3.10;;
22939;SDS011;11636;52.086;5.090;2022-09-03T22:57:14;4.78;;;3.35;;
22939;SDS011;11636;52.086;5.090;2022-09-03T23:00:10;3.97;;;3.08;;
22939;SDS011;11636;52.086;5.090;2022-09-03T23:03:01;5.07;;;3.88;;
22939;SDS011;11636;52.086;5.090;2022-09-03T23:06:03;4.85;;;3.47;;
22939;SDS011;11636;52.086;5.090;2022-09-03T23:08:58;4.32;;;3.45;;
22939;SDS011;11636;52.086;5.090;2022-09-03T23:12:04;4.28;;;3.28;;
22939;SDS011;11636;52.086;5.090;2022-09-03T23:14:56;4.10;;;3.28;;
22939;SDS011;11636;52.086;5.090;2022-09-03T23:18:04;4.60;;;3.65;;
22939;SDS011;11636;52.086;5.090;2022-09-03T23:21:19;6.63;;;4.55;;
22939;SDS011;11636;52.086;5.090;2022-09-03T23:24:30;5.00;;;3.50;;
22939;SDS011;11636;52.086;5.090;2022-09-03T23:27:19;4.78;;;3.60;;
22939;SDS011;11636;52.086;5.090;2022-09-03T23:30:18;4.60;;;3.75;;
22939;SDS011;11636;52.086;5.090;2022-09-03T23:33:06;5.95;;;4.07;;
22939;SDS011;11636;52.086;5.090;2022-09-03T23:36:05;5.43;;;4.00;;
22939;SDS011;11636;52.086;5.090;2022-09-03T23:45:48;5.00;;;3.95;;
22939;SDS011;11636;52.086;5.090;2022-09-03T23:51:52;4.75;;;3.95;;
22939;SDS011;11636;52.086;5.090;2022-09-03T23:57:59;4.35;;;3.92;;
